createdAt,value
2022-12-20T00:01:31.204Z,8.70
2022-12-20T00:04:00.027Z,8.20
2022-12-20T00:06:27.084Z,7.80
2022-12-20T00:08:58.460Z,8.02
2022-12-20T00:11:25.898Z,7.72
2022-12-20T00:13:52.792Z,8.50
2022-12-20T00:16:22.211Z,7.10
2022-12-20T00:18:52.945Z,7.88
2022-12-20T00:21:20.135Z,6.93
2022-12-20T00:23:47.222Z,6.30
2022-12-20T00:26:16.964Z,8.55
2022-12-20T00:28:45.370Z,8.20
2022-12-20T00:31:14.229Z,7.68
2022-12-20T00:33:44.762Z,6.93
2022-12-20T00:36:11.397Z,8.38
2022-12-20T00:38:38.089Z,7.85
2022-12-20T00:41:11.251Z,5.97
2022-12-20T00:43:38.845Z,6.38
2022-12-20T00:46:07.291Z,7.15
2022-12-20T00:48:34.819Z,8.60
2022-12-20T00:51:07.222Z,7.03
2022-12-20T00:53:34.220Z,7.25
2022-12-20T00:56:01.118Z,7.22
2022-12-20T00:58:27.961Z,6.88
2022-12-20T01:00:56.843Z,7.28
2022-12-20T01:03:24.628Z,7.72
2022-12-20T01:05:55.878Z,9.82
2022-12-20T01:08:24.159Z,8.32
2022-12-20T01:11:06.519Z,7.57
2022-12-20T01:13:35.434Z,7.85
2022-12-20T01:16:14.254Z,8.05
2022-12-20T01:18:41.010Z,6.78
2022-12-20T01:21:10.901Z,7.40
2022-12-20T01:23:38.063Z,8.25
2022-12-20T01:26:09.257Z,7.18
2022-12-20T01:28:37.233Z,7.97
2022-12-20T01:31:11.116Z,8.32
2022-12-20T01:33:38.019Z,8.55
2022-12-20T01:36:12.510Z,8.95
2022-12-20T01:38:39.326Z,8.55
2022-12-20T01:41:06.162Z,7.22
2022-12-20T01:43:54.158Z,7.85
2022-12-20T01:46:24.542Z,8.40
2022-12-20T01:49:10.873Z,7.40
2022-12-20T01:51:43.784Z,6.82
2022-12-20T01:54:18.977Z,7.38
2022-12-20T01:56:51.642Z,7.57
2022-12-20T01:59:18.975Z,8.23
2022-12-20T02:01:46.227Z,7.05
2022-12-20T02:04:13.175Z,7.63
2022-12-20T02:06:39.929Z,7.95
2022-12-20T02:09:08.438Z,12.98
2022-12-20T02:11:38.181Z,7.45
2022-12-20T02:14:43.196Z,7.20
2022-12-20T02:17:12.818Z,7.10
2022-12-20T02:20:11.551Z,7.53
2022-12-20T02:22:47.218Z,5.93
2022-12-20T02:25:31.223Z,7.75
2022-12-20T02:28:06.884Z,7.32
2022-12-20T02:30:38.157Z,7.22
2022-12-20T02:33:10.341Z,11.43
2022-12-20T02:35:38.582Z,8.15
2022-12-20T02:38:38.234Z,5.88
2022-12-20T02:41:27.795Z,9.60
2022-12-20T02:44:27.797Z,7.35
2022-12-20T02:46:58.367Z,7.35
2022-12-20T02:49:30.655Z,6.60
2022-12-20T02:52:00.539Z,7.57
2022-12-20T02:54:28.853Z,6.22
2022-12-20T02:57:05.286Z,7.53
2022-12-20T02:59:43.317Z,8.75
2022-12-20T03:02:12.710Z,7.00
2022-12-20T03:04:40.904Z,6.47
2022-12-20T03:07:13.500Z,7.95
2022-12-20T03:09:42.562Z,6.20
2022-12-20T03:12:11.728Z,8.80
2022-12-20T03:14:39.390Z,7.38
2022-12-20T03:17:06.300Z,8.30
2022-12-20T03:19:33.447Z,5.15
2022-12-20T03:22:00.142Z,5.47
2022-12-20T03:24:27.235Z,5.72
2022-12-20T03:26:53.887Z,6.68
2022-12-20T03:29:20.555Z,7.70
2022-12-20T03:31:47.259Z,5.55
2022-12-20T03:34:13.858Z,6.75
2022-12-20T03:36:40.469Z,6.30
2022-12-20T03:39:07.175Z,5.97
2022-12-20T03:41:33.823Z,5.18
2022-12-20T03:44:00.566Z,5.88
2022-12-20T03:46:27.954Z,6.68
2022-12-20T03:48:54.817Z,5.45
2022-12-20T03:51:21.496Z,4.75
2022-12-20T03:53:48.343Z,5.22
2022-12-20T03:56:14.983Z,5.70
2022-12-20T03:58:42.460Z,5.45
2022-12-20T04:01:27.886Z,5.72
2022-12-20T04:03:55.815Z,8.00
2022-12-20T04:06:23.239Z,5.90
2022-12-20T04:08:50.091Z,5.40
2022-12-20T04:11:16.842Z,9.07
2022-12-20T04:13:44.634Z,5.72
2022-12-20T04:16:12.976Z,6.35
2022-12-20T04:18:39.682Z,6.72
2022-12-20T04:21:09.885Z,5.80
2022-12-20T04:23:38.129Z,7.00
2022-12-20T04:26:08.610Z,5.55
2022-12-20T04:28:38.532Z,5.20
2022-12-20T04:31:05.406Z,8.00
2022-12-20T04:33:32.497Z,6.10
2022-12-20T04:35:59.206Z,6.75
2022-12-20T04:38:26.046Z,7.45
2022-12-20T04:40:54.790Z,6.55
2022-12-20T04:43:22.482Z,6.35
2022-12-20T04:45:51.278Z,6.95
2022-12-20T04:48:55.147Z,6.78
2022-12-20T04:51:06.070Z,7.78
2022-12-20T04:53:50.815Z,7.18
2022-12-20T04:56:27.607Z,8.05
2022-12-20T04:58:55.675Z,7.00
2022-12-20T05:01:23.193Z,6.35
2022-12-20T05:03:50.413Z,6.05
2022-12-20T05:06:17.912Z,6.85
2022-12-20T05:08:44.627Z,7.40
2022-12-20T05:11:11.658Z,6.50
2022-12-20T05:13:38.413Z,8.35
2022-12-20T05:16:05.688Z,8.23
2022-12-20T05:18:32.496Z,7.80
2022-12-20T05:21:19.524Z,8.27
2022-12-20T05:24:06.220Z,8.70
2022-12-20T05:26:37.591Z,8.25
2022-12-20T05:29:05.592Z,6.95
2022-12-20T05:31:32.631Z,6.53
2022-12-20T05:33:59.528Z,6.25
2022-12-20T05:36:26.222Z,9.85
2022-12-20T05:38:55.487Z,8.70
2022-12-20T05:41:27.153Z,6.57
2022-12-20T05:43:53.799Z,7.18
2022-12-20T05:46:20.557Z,7.80
2022-12-20T05:48:47.217Z,7.65
2022-12-20T05:51:13.815Z,9.57
2022-12-20T05:53:40.529Z,9.40
2022-12-20T05:56:08.210Z,10.90
2022-12-20T05:58:34.988Z,6.72
2022-12-20T06:01:07.619Z,6.95
2022-12-20T06:03:34.580Z,8.68
2022-12-20T06:06:01.577Z,7.93
2022-12-20T06:08:28.265Z,7.65
2022-12-20T06:10:55.012Z,8.68
2022-12-20T06:13:21.615Z,10.93
2022-12-20T06:15:48.232Z,10.50
2022-12-20T06:18:15.315Z,10.15
2022-12-20T06:20:41.951Z,10.45
2022-12-20T06:23:09.642Z,9.20
2022-12-20T06:25:37.060Z,8.52
2022-12-20T06:28:03.818Z,10.05
2022-12-20T06:30:34.033Z,9.35
2022-12-20T06:33:02.010Z,8.10
2022-12-20T06:35:29.355Z,8.25
2022-12-20T06:37:56.390Z,11.13
2022-12-20T06:40:23.465Z,8.98
2022-12-20T06:42:50.504Z,9.57
2022-12-20T06:45:17.266Z,8.20
2022-12-20T06:47:44.584Z,9.38
2022-12-20T06:50:11.478Z,9.15
2022-12-20T06:52:38.176Z,9.55
2022-12-20T06:55:05.232Z,9.68
2022-12-20T06:57:31.944Z,8.73
2022-12-20T06:59:58.890Z,9.10
2022-12-20T07:02:27.917Z,8.20
2022-12-20T07:04:55.247Z,8.15
2022-12-20T07:07:22.270Z,7.07
2022-12-20T07:09:49.085Z,9.85
2022-12-20T07:12:16.030Z,7.63
2022-12-20T07:14:42.687Z,6.72
2022-12-20T07:17:10.603Z,7.50
2022-12-20T07:19:37.423Z,7.97
2022-12-20T07:22:04.779Z,9.70
2022-12-20T07:24:31.936Z,9.48
2022-12-20T07:26:59.255Z,8.70
2022-12-20T07:29:26.195Z,9.70
2022-12-20T07:31:53.172Z,8.27
2022-12-20T07:34:20.056Z,11.90
2022-12-20T07:36:46.803Z,10.23
2022-12-20T07:39:13.611Z,10.77
2022-12-20T07:41:40.833Z,8.25
2022-12-20T07:44:07.586Z,8.02
2022-12-20T07:46:34.794Z,10.82
2022-12-20T07:49:01.683Z,6.82
2022-12-20T07:51:41.340Z,9.40
2022-12-20T07:54:36.862Z,11.23
2022-12-20T07:57:14.071Z,6.75
2022-12-20T07:59:43.750Z,8.25
2022-12-20T08:02:18.782Z,7.18
2022-12-20T08:04:45.521Z,6.90
2022-12-20T08:07:12.314Z,10.35
2022-12-20T08:09:43.878Z,7.03
2022-12-20T08:12:14.021Z,7.45
2022-12-20T08:14:41.015Z,9.27
2022-12-20T08:17:07.800Z,6.80
2022-12-20T08:19:34.777Z,7.57
2022-12-20T08:22:02.330Z,8.75
2022-12-20T08:24:29.019Z,8.02
2022-12-20T08:26:56.455Z,7.60
2022-12-20T08:29:23.228Z,7.22
2022-12-20T08:31:50.772Z,7.47
2022-12-20T08:34:18.155Z,6.38
2022-12-20T08:36:45.274Z,7.45
2022-12-20T08:39:11.893Z,8.15
2022-12-20T08:41:38.568Z,7.90
2022-12-20T08:44:06.621Z,7.55
2022-12-20T08:46:33.391Z,6.95
2022-12-20T08:49:00.093Z,7.28
2022-12-20T08:51:26.838Z,7.53
2022-12-20T08:53:53.587Z,6.72
2022-12-20T08:56:20.261Z,7.88
2022-12-20T08:58:47.466Z,7.18
2022-12-20T09:01:17.152Z,7.60
2022-12-20T09:03:44.420Z,8.40
2022-12-20T09:06:15.711Z,7.85
2022-12-20T09:08:42.714Z,8.88
2022-12-20T09:11:15.904Z,7.30
2022-12-20T09:13:45.033Z,7.55
2022-12-20T09:16:14.038Z,7.25
2022-12-20T09:18:41.378Z,9.98
2022-12-20T09:21:09.351Z,8.98
2022-12-20T09:23:36.932Z,8.52
2022-12-20T09:26:10.153Z,7.50
2022-12-20T09:28:37.195Z,8.35
2022-12-20T09:31:06.479Z,6.90
2022-12-20T09:33:34.840Z,9.68
2022-12-20T09:36:02.559Z,7.03
2022-12-20T09:38:31.130Z,6.85
2022-12-20T09:41:06.173Z,6.95
2022-12-20T09:43:33.892Z,5.90
2022-12-20T09:46:02.875Z,7.22
2022-12-20T09:48:33.608Z,6.55
2022-12-20T09:51:12.108Z,5.28
2022-12-20T09:54:00.685Z,8.57
2022-12-20T09:56:30.733Z,5.20
2022-12-20T09:59:18.611Z,7.43
2022-12-20T10:01:47.680Z,6.53
2022-12-20T10:04:25.140Z,5.25
2022-12-20T10:07:16.291Z,6.80
2022-12-20T10:10:20.873Z,5.57
2022-12-20T10:13:03.315Z,6.75
2022-12-20T10:15:38.516Z,6.10
2022-12-20T10:18:17.088Z,6.43
2022-12-20T10:21:08.738Z,5.68
2022-12-20T10:24:01.635Z,6.30
2022-12-20T10:26:29.251Z,4.80
2022-12-20T10:28:56.138Z,5.20
2022-12-20T10:31:23.489Z,5.15
2022-12-20T10:33:50.293Z,5.38
2022-12-20T10:36:35.401Z,4.97
2022-12-20T10:39:05.042Z,4.47
2022-12-20T10:41:49.042Z,3.72
2022-12-20T10:44:25.346Z,11.25
2022-12-20T10:46:53.997Z,6.25
2022-12-20T10:49:41.033Z,7.22
2022-12-20T10:52:07.840Z,5.40
2022-12-20T10:54:37.501Z,4.65
2022-12-20T10:57:21.132Z,4.05
2022-12-20T10:59:57.755Z,4.10
2022-12-20T11:02:40.785Z,4.35
2022-12-20T11:05:11.927Z,3.78
2022-12-20T11:10:47.310Z,3.55
2022-12-20T11:13:25.526Z,4.82
2022-12-20T11:15:57.080Z,3.65
2022-12-20T11:18:33.970Z,4.38
2022-12-20T11:21:00.836Z,4.50
2022-12-20T11:23:27.481Z,5.10
2022-12-20T11:26:20.125Z,3.28
2022-12-20T11:29:22.999Z,3.13
2022-12-20T11:32:23.436Z,4.63
2022-12-20T11:34:58.956Z,20.20
2022-12-20T11:37:27.735Z,55.38
2022-12-20T11:40:20.581Z,61.42
2022-12-20T11:42:53.376Z,11.80
2022-12-20T11:45:46.913Z,21.80
2022-12-20T11:48:52.086Z,8.15
2022-12-20T11:51:26.587Z,7.95
2022-12-20T11:54:21.866Z,7.97
2022-12-20T11:56:52.719Z,6.22
2022-12-20T11:59:44.991Z,9.45
2022-12-20T12:02:14.956Z,6.63
2022-12-20T12:04:47.196Z,6.78
2022-12-20T12:07:24.600Z,8.82
2022-12-20T12:09:53.945Z,10.15
2022-12-20T12:12:29.135Z,7.55
2022-12-20T12:15:23.829Z,9.93
2022-12-20T12:18:20.713Z,8.25
2022-12-20T12:21:08.951Z,9.07
2022-12-20T12:23:45.772Z,7.90
2022-12-20T12:26:20.072Z,8.43
2022-12-20T12:28:53.775Z,10.75
2022-12-20T12:31:38.490Z,10.00
2022-12-20T12:34:12.057Z,9.48
2022-12-20T12:37:06.752Z,7.78
2022-12-20T12:40:00.319Z,7.40
2022-12-20T12:42:57.925Z,6.93
2022-12-20T12:45:29.041Z,7.82
2022-12-20T12:48:02.919Z,8.50
2022-12-20T12:50:35.146Z,9.98
2022-12-20T12:53:22.000Z,9.77
2022-12-20T12:56:07.304Z,12.57
2022-12-20T12:58:46.482Z,11.18
2022-12-20T13:01:47.830Z,13.82
2022-12-20T13:04:20.638Z,14.05
2022-12-20T13:06:47.273Z,15.13
2022-12-20T13:09:22.468Z,12.48
2022-12-20T13:11:55.550Z,9.80
2022-12-20T13:14:27.604Z,10.63
2022-12-20T13:17:22.202Z,9.18
2022-12-20T13:19:54.789Z,10.85
2022-12-20T13:22:25.938Z,10.13
2022-12-20T13:25:02.946Z,9.05
2022-12-20T13:27:32.902Z,10.40
2022-12-20T13:30:08.047Z,12.68
2022-12-20T13:32:47.243Z,11.68
2022-12-20T13:35:26.389Z,12.18
2022-12-20T13:38:07.722Z,10.23
2022-12-20T13:40:50.296Z,14.18
2022-12-20T13:43:28.073Z,10.38
2022-12-20T13:46:09.949Z,12.80
2022-12-20T13:48:47.772Z,13.98
2022-12-20T13:51:26.076Z,11.55
2022-12-20T13:54:00.531Z,8.55
2022-12-20T13:56:27.166Z,9.32
2022-12-20T13:58:57.200Z,12.63
2022-12-20T14:01:25.964Z,12.38
2022-12-20T14:03:53.628Z,17.80
2022-12-20T14:06:26.515Z,14.40
2022-12-20T14:08:54.291Z,13.13
2022-12-20T14:11:23.961Z,11.02
2022-12-20T14:14:04.856Z,9.88
2022-12-20T14:16:33.467Z,10.68
2022-12-20T14:19:05.779Z,9.50
2022-12-20T14:21:37.120Z,10.93
2022-12-20T14:24:04.389Z,10.82
2022-12-20T14:26:47.719Z,10.10
2022-12-20T14:29:20.377Z,9.32
2022-12-20T14:31:48.824Z,12.23
2022-12-20T14:34:29.868Z,10.98
2022-12-20T14:37:33.535Z,8.77
2022-12-20T14:40:09.505Z,12.13
2022-12-20T14:42:39.395Z,10.65
2022-12-20T14:45:09.366Z,9.27
2022-12-20T14:47:37.554Z,12.23
2022-12-20T14:50:17.221Z,10.65
2022-12-20T14:52:45.635Z,10.20
2022-12-20T14:55:16.593Z,15.85
2022-12-20T14:57:55.551Z,12.65
2022-12-20T15:00:31.489Z,10.45
2022-12-20T15:03:13.008Z,12.25
2022-12-20T15:05:45.563Z,10.93
2022-12-20T15:08:23.329Z,12.55
2022-12-20T15:11:08.530Z,13.73
2022-12-20T15:13:42.007Z,16.92
2022-12-20T15:16:18.271Z,16.40
2022-12-20T15:18:49.300Z,14.73
2022-12-20T15:21:22.465Z,17.50
2022-12-20T15:23:52.022Z,18.60
2022-12-20T15:26:21.908Z,15.00
2022-12-20T15:28:48.692Z,17.27
2022-12-20T15:31:18.326Z,30.15
2022-12-20T15:33:45.855Z,17.52
2022-12-20T15:36:22.433Z,15.70
2022-12-20T15:41:38.829Z,15.63
2022-12-20T15:44:07.675Z,16.55
2022-12-20T15:46:34.535Z,16.70
2022-12-20T15:49:01.427Z,16.98
2022-12-20T15:51:32.055Z,15.88
2022-12-20T15:54:00.085Z,13.40
2022-12-20T15:56:28.243Z,13.85
2022-12-20T15:58:55.411Z,13.07
2022-12-20T16:01:27.356Z,15.43
2022-12-20T16:03:54.365Z,23.77
2022-12-20T16:06:21.291Z,16.95
2022-12-20T16:08:47.948Z,16.80
2022-12-20T16:11:22.708Z,15.68
2022-12-20T16:13:50.416Z,15.95
2022-12-20T16:16:19.468Z,18.50
2022-12-20T16:18:46.365Z,19.98
2022-12-20T16:21:19.051Z,16.35
2022-12-20T16:23:46.997Z,16.08
2022-12-20T16:26:19.715Z,15.55
2022-12-20T16:28:47.877Z,17.23
2022-12-20T16:31:40.612Z,16.40
2022-12-20T16:34:13.414Z,17.42
2022-12-20T16:36:40.203Z,18.17
2022-12-20T16:39:06.885Z,16.23
2022-12-20T16:41:33.974Z,19.00
2022-12-20T16:44:02.940Z,16.73
2022-12-20T16:46:31.751Z,16.90
2022-12-20T16:49:00.572Z,17.05
2022-12-20T16:51:39.417Z,17.75
2022-12-20T16:54:22.992Z,19.38
2022-12-20T16:56:55.945Z,18.33
2022-12-20T16:59:23.963Z,17.65
2022-12-20T17:01:53.467Z,19.05
2022-12-20T17:04:21.328Z,17.83
2022-12-20T17:06:48.551Z,19.45
2022-12-20T17:12:00.628Z,21.38
2022-12-20T17:14:30.959Z,18.48
2022-12-20T17:16:57.672Z,19.65
2022-12-20T17:19:24.367Z,20.20
2022-12-20T17:24:35.529Z,22.00
2022-12-20T17:27:02.257Z,23.58
2022-12-20T17:29:28.856Z,21.77
2022-12-20T17:31:55.648Z,25.35
2022-12-20T17:34:28.234Z,23.08
2022-12-20T17:36:57.084Z,22.38
2022-12-20T17:39:25.324Z,22.00
2022-12-20T17:41:53.986Z,21.02
2022-12-20T17:44:26.152Z,23.30
2022-12-20T17:46:53.950Z,24.75
2022-12-20T17:49:21.086Z,23.02
2022-12-20T17:51:47.657Z,32.10
2022-12-20T17:54:20.694Z,29.38
2022-12-20T17:56:47.743Z,30.88
2022-12-20T17:59:14.554Z,27.85
2022-12-20T18:01:43.105Z,27.85
2022-12-20T18:04:12.313Z,35.33
2022-12-20T18:06:40.766Z,30.45
2022-12-20T18:09:13.564Z,27.10
2022-12-20T18:11:40.184Z,26.42
2022-12-20T18:14:13.941Z,27.05
2022-12-20T18:16:41.570Z,26.38
2022-12-20T18:19:14.360Z,28.65
2022-12-20T18:21:41.710Z,25.77
2022-12-20T18:24:11.930Z,25.02
2022-12-20T18:26:38.935Z,29.17
2022-12-20T18:29:05.601Z,28.48
2022-12-20T18:31:34.630Z,32.95
2022-12-20T18:34:02.071Z,32.00
2022-12-20T18:36:34.570Z,30.00
2022-12-20T18:39:03.014Z,26.77
2022-12-20T18:41:30.943Z,30.10
2022-12-20T18:44:03.576Z,35.55
2022-12-20T18:46:30.353Z,25.58
2022-12-20T18:48:58.775Z,29.35
2022-12-20T18:51:30.877Z,28.17
2022-12-20T18:53:59.121Z,28.88
2022-12-20T18:56:31.888Z,29.17
2022-12-20T18:59:06.244Z,31.42
2022-12-20T19:01:37.596Z,27.13
2022-12-20T19:04:06.211Z,29.17
2022-12-20T19:06:33.542Z,30.52
2022-12-20T19:09:01.465Z,48.75
2022-12-20T19:11:29.766Z,32.28
2022-12-20T19:13:56.779Z,31.38
2022-12-20T19:16:26.527Z,29.02
2022-12-20T19:18:53.463Z,33.60
2022-12-20T19:21:25.570Z,35.85
2022-12-20T19:23:55.554Z,34.22
2022-12-20T19:26:23.867Z,33.28
2022-12-20T19:28:51.126Z,38.17
2022-12-20T19:31:23.604Z,31.85
2022-12-20T19:33:53.278Z,39.45
2022-12-20T19:36:24.921Z,30.00
2022-12-20T19:38:57.820Z,31.33
2022-12-20T19:41:28.160Z,33.47
2022-12-20T19:43:55.761Z,33.40
2022-12-20T19:46:28.870Z,36.83
2022-12-20T19:48:57.873Z,56.70
2022-12-20T19:51:26.182Z,48.20
2022-12-20T19:53:53.797Z,39.67
2022-12-20T19:56:23.467Z,31.30
2022-12-20T19:58:50.227Z,32.38
2022-12-20T20:01:18.081Z,32.15
2022-12-20T20:03:45.639Z,34.63
2022-12-20T20:06:12.992Z,29.95
2022-12-20T20:08:40.226Z,32.33
2022-12-20T20:11:09.856Z,30.98
2022-12-20T20:13:37.729Z,29.67
2022-12-20T20:16:04.807Z,30.63
2022-12-20T20:18:35.436Z,31.23
2022-12-20T20:21:07.175Z,31.52
2022-12-20T20:23:34.198Z,31.33
2022-12-20T20:26:01.131Z,32.72
2022-12-20T20:28:31.913Z,30.55
2022-12-20T20:31:00.770Z,31.80
2022-12-20T20:33:27.913Z,31.17
2022-12-20T20:35:56.649Z,30.50
2022-12-20T20:38:23.972Z,29.48
2022-12-20T20:40:51.268Z,29.95
2022-12-20T20:43:18.681Z,34.13
2022-12-20T20:45:45.312Z,31.38
2022-12-20T20:48:12.053Z,29.88
2022-12-20T20:50:38.714Z,28.65
2022-12-20T20:53:06.927Z,28.33
2022-12-20T20:55:34.851Z,26.60
2022-12-20T20:58:01.612Z,34.78
2022-12-20T21:00:29.535Z,35.55
2022-12-20T21:02:56.503Z,30.13
2022-12-20T21:08:10.079Z,28.55
2022-12-20T21:10:37.281Z,29.55
2022-12-20T21:13:04.916Z,28.75
2022-12-20T21:15:32.963Z,32.15
2022-12-20T21:17:59.601Z,32.25
2022-12-20T21:20:26.692Z,28.48
2022-12-20T21:22:53.405Z,27.00
2022-12-20T21:25:19.968Z,32.13
2022-12-20T21:27:46.548Z,27.60
2022-12-20T21:30:13.349Z,29.23
2022-12-20T21:32:39.899Z,28.05
2022-12-20T21:35:06.865Z,28.40
2022-12-20T21:37:33.482Z,28.52
2022-12-20T21:40:00.047Z,29.13
2022-12-20T21:42:26.656Z,33.17
2022-12-20T21:44:53.355Z,28.60
2022-12-20T21:47:20.081Z,26.90
2022-12-20T21:49:46.682Z,24.90
2022-12-20T21:52:13.325Z,41.60
2022-12-20T21:54:40.923Z,30.80
2022-12-20T21:57:07.506Z,25.42
2022-12-20T21:59:34.063Z,37.97
2022-12-20T22:02:00.940Z,26.15
2022-12-20T22:04:28.226Z,28.20
2022-12-20T22:07:02.634Z,26.55
2022-12-20T22:09:38.042Z,25.95
2022-12-20T22:12:10.752Z,24.90
2022-12-20T22:14:41.602Z,26.48
2022-12-20T22:17:08.188Z,24.98
2022-12-20T22:19:36.149Z,25.88
2022-12-20T22:22:13.521Z,26.83
2022-12-20T22:24:48.669Z,27.70
2022-12-20T22:27:15.290Z,29.85
2022-12-20T22:29:55.074Z,25.77
2022-12-20T22:32:27.899Z,25.92
2022-12-20T22:34:57.641Z,32.15
2022-12-20T22:37:24.261Z,27.98
2022-12-20T22:39:50.956Z,26.30
2022-12-20T22:42:18.342Z,42.72
2022-12-20T22:44:44.978Z,30.23
2022-12-20T22:47:11.591Z,30.52
2022-12-20T22:49:38.231Z,27.80
2022-12-20T22:52:07.725Z,32.10
2022-12-20T22:54:35.171Z,28.23
2022-12-20T22:57:01.802Z,30.50
2022-12-20T22:59:28.357Z,26.70
2022-12-20T23:01:55.127Z,28.45
2022-12-20T23:04:21.878Z,43.35
2022-12-20T23:06:48.554Z,29.15
2022-12-20T23:09:15.234Z,28.48
2022-12-20T23:12:00.549Z,29.50
2022-12-20T23:14:45.633Z,28.33
2022-12-20T23:17:12.475Z,29.55
2022-12-20T23:19:57.695Z,26.52
2022-12-20T23:22:40.542Z,28.77
2022-12-20T23:25:16.245Z,28.95
2022-12-20T23:27:44.769Z,28.77
2022-12-20T23:30:14.518Z,28.73
2022-12-20T23:32:44.759Z,28.92
2022-12-20T23:35:17.302Z,30.27
2022-12-20T23:37:46.032Z,29.23
2022-12-20T23:40:13.687Z,29.33
2022-12-20T23:42:41.107Z,27.45
2022-12-20T23:45:08.625Z,29.42
2022-12-20T23:47:35.420Z,30.27
2022-12-20T23:50:02.471Z,33.28
2022-12-20T23:52:29.363Z,29.50
2022-12-20T23:54:56.027Z,30.77
2022-12-20T23:57:22.657Z,26.90
2022-12-20T23:59:49.424Z,28.23
